createdAt,value
2023-01-27T00:00:44.511Z,0.59
2023-01-27T00:01:44.514Z,0.59
2023-01-27T00:02:44.549Z,0.59
2023-01-27T00:03:44.589Z,0.61
2023-01-27T00:04:44.529Z,0.60
2023-01-27T00:05:44.528Z,0.60
2023-01-27T00:06:44.540Z,0.60
2023-01-27T00:07:44.530Z,0.61
2023-01-27T00:08:44.557Z,0.60
2023-01-27T00:09:44.543Z,0.61
2023-01-27T00:10:44.542Z,0.59
2023-01-27T00:11:44.526Z,0.60
2023-01-27T00:12:44.536Z,0.61
2023-01-27T00:13:44.540Z,0.60
2023-01-27T00:14:44.547Z,0.58
2023-01-27T00:15:44.566Z,0.60
2023-01-27T00:16:44.574Z,0.60
2023-01-27T00:17:44.540Z,0.60
2023-01-27T00:18:44.562Z,0.60
2023-01-27T00:19:44.568Z,0.59
2023-01-27T00:20:44.581Z,0.59
2023-01-27T00:21:44.565Z,0.61
2023-01-27T00:22:44.581Z,0.60
2023-01-27T00:23:44.579Z,0.59
2023-01-27T00:24:44.570Z,0.59
2023-01-27T00:25:44.591Z,0.60
2023-01-27T00:26:44.585Z,0.60
2023-01-27T00:27:44.604Z,0.60
2023-01-27T00:28:44.614Z,0.60
2023-01-27T00:29:44.590Z,0.60
2023-01-27T00:30:44.615Z,0.60
2023-01-27T00:31:44.667Z,0.60
2023-01-27T00:32:44.647Z,0.60
2023-01-27T00:33:44.580Z,0.60
2023-01-27T00:34:44.595Z,0.60
2023-01-27T00:35:44.579Z,0.60
2023-01-27T00:36:44.601Z,0.61
2023-01-27T00:37:44.572Z,0.62
2023-01-27T00:38:44.556Z,0.61
2023-01-27T00:39:44.561Z,0.61
2023-01-27T00:40:44.562Z,0.60
2023-01-27T00:41:44.554Z,0.61
2023-01-27T00:42:44.546Z,0.61
2023-01-27T00:43:44.545Z,0.60
2023-01-27T00:44:44.553Z,0.60
2023-01-27T00:45:44.537Z,0.61
2023-01-27T00:46:44.582Z,0.61
2023-01-27T00:47:44.531Z,0.60
2023-01-27T00:48:44.533Z,0.62
2023-01-27T00:49:44.521Z,0.61
2023-01-27T00:50:44.508Z,0.60
2023-01-27T00:51:44.500Z,0.60
2023-01-27T00:52:44.489Z,0.61
2023-01-27T00:53:44.490Z,0.61
2023-01-27T00:54:44.480Z,0.61
2023-01-27T00:55:44.484Z,0.61
2023-01-27T00:56:44.459Z,0.60
2023-01-27T00:57:44.463Z,0.61
2023-01-27T00:58:44.466Z,0.61
2023-01-27T00:59:44.471Z,0.60
2023-01-27T01:00:44.457Z,0.61
2023-01-27T01:01:44.496Z,0.60
2023-01-27T01:02:44.531Z,0.60
2023-01-27T01:03:44.445Z,0.61
2023-01-27T01:04:44.440Z,0.61
2023-01-27T01:05:44.449Z,0.60
2023-01-27T01:06:44.440Z,0.61
2023-01-27T01:07:44.433Z,0.60
2023-01-27T01:08:44.424Z,0.60
2023-01-27T01:09:44.427Z,0.61
2023-01-27T01:10:44.423Z,0.60
2023-01-27T01:11:44.398Z,0.61
2023-01-27T01:12:44.406Z,0.60
2023-01-27T01:13:44.373Z,0.62
2023-01-27T01:14:44.389Z,0.62
2023-01-27T01:15:44.420Z,0.61
2023-01-27T01:16:44.376Z,0.60
2023-01-27T01:17:44.345Z,0.62
2023-01-27T01:18:44.356Z,0.60
2023-01-27T01:19:44.353Z,0.62
2023-01-27T01:20:44.347Z,0.61
2023-01-27T01:21:44.316Z,0.60
2023-01-27T01:22:44.313Z,0.60
2023-01-27T01:23:44.315Z,0.60
2023-01-27T01:24:44.332Z,0.61
2023-01-27T01:25:44.289Z,0.60
2023-01-27T01:26:44.293Z,0.61
2023-01-27T01:27:44.289Z,0.61
2023-01-27T01:28:44.284Z,0.60
2023-01-27T01:29:44.299Z,0.61
2023-01-27T01:30:44.298Z,0.60
2023-01-27T01:31:44.329Z,0.61
2023-01-27T01:32:44.269Z,0.61
2023-01-27T01:33:44.267Z,0.61
2023-01-27T01:34:44.292Z,0.61
2023-01-27T01:35:44.260Z,0.62
2023-01-27T01:36:44.270Z,0.61
2023-01-27T01:37:44.261Z,0.62
2023-01-27T01:38:44.269Z,0.60
2023-01-27T01:39:44.267Z,0.61
2023-01-27T01:40:44.818Z,0.61
2023-01-27T01:41:44.273Z,0.60
2023-01-27T01:42:44.272Z,0.60
2023-01-27T01:43:44.269Z,0.61
2023-01-27T01:44:44.280Z,0.61
2023-01-27T01:45:44.279Z,0.60
2023-01-27T01:46:44.306Z,0.61
2023-01-27T01:47:44.262Z,0.62
2023-01-27T01:48:44.283Z,0.60
2023-01-27T01:49:44.267Z,0.61
2023-01-27T01:50:44.271Z,0.61
2023-01-27T01:51:44.289Z,0.61
2023-01-27T01:52:44.273Z,0.60
2023-01-27T01:53:44.277Z,0.61
2023-01-27T01:54:44.276Z,0.61
2023-01-27T01:55:44.294Z,0.61
2023-01-27T01:56:44.294Z,0.60
2023-01-27T01:57:44.294Z,0.60
2023-01-27T01:58:44.536Z,0.61
2023-01-27T01:59:44.297Z,0.60
2023-01-27T02:00:44.286Z,0.62
2023-01-27T02:01:44.286Z,0.60
2023-01-27T02:02:44.382Z,0.61
2023-01-27T02:03:44.292Z,0.62
2023-01-27T02:04:44.300Z,0.60
2023-01-27T02:05:44.293Z,0.60
2023-01-27T02:06:44.304Z,0.60
2023-01-27T02:07:44.297Z,0.60
2023-01-27T02:08:44.342Z,0.61
2023-01-27T02:09:44.289Z,0.60
2023-01-27T02:10:44.290Z,0.62
2023-01-27T02:11:44.284Z,0.61
2023-01-27T02:12:44.283Z,0.61
2023-01-27T02:13:44.314Z,0.61
2023-01-27T02:14:44.287Z,0.60
2023-01-27T02:15:44.279Z,0.61
2023-01-27T02:16:44.368Z,0.60
2023-01-27T02:17:44.287Z,0.61
2023-01-27T02:18:44.292Z,0.61
2023-01-27T02:19:44.284Z,0.61
2023-01-27T02:20:44.278Z,0.61
2023-01-27T02:21:44.282Z,0.60
2023-01-27T02:22:44.271Z,0.61
2023-01-27T02:23:44.283Z,0.61
2023-01-27T02:24:44.274Z,0.59
2023-01-27T02:25:44.270Z,0.60
2023-01-27T02:26:44.288Z,0.60
2023-01-27T02:27:44.280Z,0.60
2023-01-27T02:28:44.280Z,0.60
2023-01-27T02:29:44.280Z,0.60
2023-01-27T02:30:44.367Z,0.61
2023-01-27T02:31:44.456Z,0.61
2023-01-27T02:32:44.292Z,0.60
2023-01-27T02:33:44.287Z,0.60
2023-01-27T02:34:44.311Z,0.61
2023-01-27T02:35:44.316Z,0.61
2023-01-27T02:36:44.313Z,0.60
2023-01-27T02:37:44.307Z,0.61
2023-01-27T02:38:44.297Z,0.60
2023-01-27T02:39:44.296Z,0.60
2023-01-27T02:40:44.303Z,0.61
2023-01-27T02:41:44.301Z,0.60
2023-01-27T02:42:44.302Z,0.61
2023-01-27T02:43:44.309Z,0.60
2023-01-27T02:44:44.302Z,0.61
2023-01-27T02:45:44.298Z,0.60
2023-01-27T02:46:44.330Z,0.60
2023-01-27T02:47:44.306Z,0.60
2023-01-27T02:48:44.322Z,0.60
2023-01-27T02:49:44.296Z,0.60
2023-01-27T02:50:44.315Z,0.60
2023-01-27T02:51:44.313Z,0.61
2023-01-27T02:52:44.322Z,0.60
2023-01-27T02:53:44.350Z,0.60
2023-01-27T02:54:44.348Z,0.61
2023-01-27T02:55:44.316Z,0.61
2023-01-27T02:56:44.319Z,0.60
2023-01-27T02:57:44.319Z,0.60
2023-01-27T02:58:44.330Z,0.59
2023-01-27T02:59:44.337Z,0.61
2023-01-27T03:00:44.322Z,0.61
2023-01-27T03:01:44.386Z,0.61
2023-01-27T03:02:44.366Z,0.60
2023-01-27T03:03:44.453Z,0.61
2023-01-27T03:04:44.342Z,0.61
2023-01-27T03:05:44.351Z,0.59
2023-01-27T03:06:44.351Z,0.60
2023-01-27T03:07:44.345Z,0.61
2023-01-27T03:08:44.360Z,0.60
2023-01-27T03:09:44.353Z,0.61
2023-01-27T03:10:44.385Z,0.60
2023-01-27T03:11:44.359Z,0.59
2023-01-27T03:12:44.374Z,0.60
2023-01-27T03:13:44.457Z,0.60
2023-01-27T03:14:44.375Z,0.60
2023-01-27T03:15:44.414Z,0.59
2023-01-27T03:16:44.392Z,0.59
2023-01-27T03:17:44.388Z,0.59
2023-01-27T03:18:44.405Z,0.60
2023-01-27T03:19:44.404Z,0.60
2023-01-27T03:20:44.437Z,0.60
2023-01-27T03:21:44.415Z,0.60
2023-01-27T03:22:44.411Z,0.61
2023-01-27T03:23:44.413Z,0.60
2023-01-27T03:24:44.418Z,0.60
2023-01-27T03:25:44.417Z,0.60
2023-01-27T03:26:44.418Z,0.59
2023-01-27T03:27:44.423Z,0.60
2023-01-27T03:28:44.419Z,0.60
2023-01-27T03:29:44.416Z,0.60
2023-01-27T03:30:44.477Z,0.60
2023-01-27T03:31:44.574Z,0.59
2023-01-27T03:32:44.418Z,0.59
2023-01-27T03:33:44.412Z,0.60
2023-01-27T03:34:44.410Z,0.59
2023-01-27T03:35:44.417Z,0.58
2023-01-27T03:36:44.425Z,0.60
2023-01-27T03:37:44.432Z,0.60
2023-01-27T03:38:44.443Z,0.60
2023-01-27T03:39:44.436Z,0.60
2023-01-27T03:40:44.441Z,0.60
2023-01-27T03:41:44.441Z,0.60
2023-01-27T03:42:44.452Z,0.60
2023-01-27T03:43:44.461Z,0.60
2023-01-27T03:44:44.459Z,0.60
2023-01-27T03:45:44.468Z,0.59
2023-01-27T03:46:44.469Z,0.61
2023-01-27T03:47:44.471Z,0.59
2023-01-27T03:48:44.464Z,0.59
2023-01-27T03:49:44.462Z,0.60
2023-01-27T03:50:44.471Z,0.59
2023-01-27T03:51:44.468Z,0.60
2023-01-27T03:52:44.463Z,0.60
2023-01-27T03:53:44.477Z,0.59
2023-01-27T03:54:44.476Z,0.60
2023-01-27T03:55:44.482Z,0.59
2023-01-27T03:56:44.479Z,0.60
2023-01-27T03:57:44.485Z,0.59
2023-01-27T03:58:44.498Z,0.60
2023-01-27T03:59:44.507Z,0.59
2023-01-27T04:00:44.508Z,0.59
2023-01-27T04:01:44.557Z,0.58
2023-01-27T04:02:44.533Z,0.58
2023-01-27T04:03:44.526Z,0.59
2023-01-27T04:04:44.521Z,0.59
2023-01-27T04:05:44.526Z,0.59
2023-01-27T04:06:44.519Z,0.60
2023-01-27T04:07:44.537Z,0.60
2023-01-27T04:08:44.537Z,0.59
2023-01-27T04:09:44.533Z,0.59
2023-01-27T04:10:44.516Z,0.59
2023-01-27T04:11:44.532Z,0.60
2023-01-27T04:12:44.507Z,0.60
2023-01-27T04:13:44.505Z,0.58
2023-01-27T04:14:44.515Z,0.59
2023-01-27T04:15:44.519Z,0.58
2023-01-27T04:16:44.505Z,0.59
2023-01-27T04:17:44.504Z,0.59
2023-01-27T04:18:44.505Z,0.58
2023-01-27T04:19:44.497Z,0.59
2023-01-27T04:20:44.510Z,0.57
2023-01-27T04:21:44.492Z,0.59
2023-01-27T04:22:44.505Z,0.59
2023-01-27T04:23:44.499Z,0.58
2023-01-27T04:24:44.501Z,0.58
2023-01-27T04:25:44.496Z,0.58
2023-01-27T04:26:44.488Z,0.58
2023-01-27T04:27:44.495Z,0.58
2023-01-27T04:28:45.001Z,0.57
2023-01-27T04:29:44.502Z,0.58
2023-01-27T04:30:44.505Z,0.57
2023-01-27T04:31:44.581Z,0.57
2023-01-27T04:32:44.502Z,0.58
2023-01-27T04:33:44.511Z,0.58
2023-01-27T04:34:44.528Z,0.58
2023-01-27T04:35:44.513Z,0.58
2023-01-27T04:36:44.521Z,0.58
2023-01-27T04:37:44.526Z,0.58
2023-01-27T04:38:44.528Z,0.57
2023-01-27T04:39:44.551Z,0.58
2023-01-27T04:40:44.538Z,0.58
2023-01-27T04:41:44.535Z,0.57
2023-01-27T04:42:44.534Z,0.58
2023-01-27T04:43:44.541Z,0.57
2023-01-27T04:44:44.557Z,0.57
2023-01-27T04:45:44.640Z,0.58
2023-01-27T04:46:44.565Z,0.57
2023-01-27T04:47:44.568Z,0.57
2023-01-27T04:48:44.563Z,0.57
2023-01-27T04:49:44.580Z,0.58
2023-01-27T04:50:44.564Z,0.57
2023-01-27T04:51:46.229Z,0.57
2023-01-27T04:52:44.568Z,0.57
2023-01-27T04:53:44.579Z,0.57
2023-01-27T04:54:44.590Z,0.57
2023-01-27T04:55:44.603Z,0.57
2023-01-27T04:56:44.592Z,0.58
2023-01-27T04:57:44.578Z,0.57
2023-01-27T04:58:44.579Z,0.56
2023-01-27T04:59:44.581Z,0.57
2023-01-27T05:00:44.600Z,0.57
2023-01-27T05:01:44.625Z,0.57
2023-01-27T05:02:44.683Z,0.57
2023-01-27T05:03:44.583Z,0.57
2023-01-27T05:04:44.587Z,0.56
2023-01-27T05:05:44.587Z,0.57
2023-01-27T05:06:44.597Z,0.57
2023-01-27T05:07:44.593Z,0.56
2023-01-27T05:08:44.588Z,0.56
2023-01-27T05:09:44.612Z,0.55
2023-01-27T05:10:44.596Z,0.57
2023-01-27T05:11:44.613Z,0.56
2023-01-27T05:12:44.621Z,0.56
2023-01-27T05:13:44.632Z,0.57
2023-01-27T05:14:44.621Z,0.56
2023-01-27T05:15:44.727Z,0.56
2023-01-27T05:16:44.723Z,0.57
2023-01-27T05:17:44.635Z,0.56
2023-01-27T05:18:44.632Z,0.56
2023-01-27T05:19:44.635Z,0.56
2023-01-27T05:20:44.630Z,0.57
2023-01-27T05:21:44.643Z,0.56
2023-01-27T05:22:44.636Z,0.56
2023-01-27T05:23:44.642Z,0.57
2023-01-27T05:24:44.641Z,0.55
2023-01-27T05:25:44.647Z,0.55
2023-01-27T05:26:44.653Z,0.56
2023-01-27T05:27:44.649Z,0.55
2023-01-27T05:28:44.658Z,0.56
2023-01-27T05:29:44.660Z,0.55
2023-01-27T05:30:44.699Z,0.56
2023-01-27T05:31:44.821Z,0.56
2023-01-27T05:32:44.671Z,0.55
2023-01-27T05:33:44.680Z,0.56
2023-01-27T05:34:44.680Z,0.55
2023-01-27T05:35:44.717Z,0.56
2023-01-27T05:36:44.682Z,0.56
2023-01-27T05:37:44.692Z,0.56
2023-01-27T05:38:44.692Z,0.56
2023-01-27T05:39:44.688Z,0.56
2023-01-27T05:40:44.698Z,0.56
2023-01-27T05:41:44.698Z,0.55
2023-01-27T05:42:44.704Z,0.56
2023-01-27T05:43:44.702Z,0.56
2023-01-27T05:44:44.691Z,0.57
2023-01-27T05:45:44.680Z,0.56
2023-01-27T05:46:45.227Z,0.55
2023-01-27T05:47:44.679Z,0.55
2023-01-27T05:48:44.690Z,0.54
2023-01-27T05:49:44.680Z,0.55
2023-01-27T05:50:44.679Z,0.55
2023-01-27T05:51:44.679Z,0.55
2023-01-27T05:52:44.687Z,0.55
2023-01-27T05:53:44.676Z,0.55
2023-01-27T05:54:44.695Z,0.55
2023-01-27T05:55:44.741Z,0.55
2023-01-27T05:56:44.672Z,0.55
2023-01-27T05:57:44.691Z,0.55
2023-01-27T05:58:44.732Z,0.55
2023-01-27T05:59:44.677Z,0.54
2023-01-27T06:00:44.679Z,0.54
2023-01-27T06:01:44.843Z,0.55
2023-01-27T06:02:44.824Z,0.55
2023-01-27T06:03:44.692Z,0.56
2023-01-27T06:04:44.680Z,0.55
2023-01-27T06:05:44.665Z,0.56
2023-01-27T06:06:44.677Z,0.55
2023-01-27T06:07:44.673Z,0.55
2023-01-27T06:08:44.680Z,0.54
2023-01-27T06:09:44.679Z,0.56
2023-01-27T06:10:44.682Z,0.55
2023-01-27T06:11:44.689Z,0.55
2023-01-27T06:12:44.685Z,0.55
2023-01-27T06:13:44.687Z,0.54
2023-01-27T06:14:44.704Z,0.54
2023-01-27T06:15:44.676Z,0.55
2023-01-27T06:16:44.759Z,0.54
2023-01-27T06:17:44.690Z,0.54
2023-01-27T06:18:44.682Z,0.55
2023-01-27T06:19:44.681Z,0.55
2023-01-27T06:20:44.678Z,0.56
2023-01-27T06:21:44.693Z,0.55
2023-01-27T06:22:44.691Z,0.55
2023-01-27T06:23:44.705Z,0.56
2023-01-27T06:24:44.690Z,0.55
2023-01-27T06:25:44.698Z,0.54
2023-01-27T06:26:44.702Z,0.55
2023-01-27T06:27:44.705Z,0.55
2023-01-27T06:28:44.725Z,0.54
2023-01-27T06:29:44.711Z,0.55
2023-01-27T06:30:44.836Z,0.53
2023-01-27T06:31:44.762Z,0.54
2023-01-27T06:32:44.715Z,0.54
2023-01-27T06:33:44.743Z,0.55
2023-01-27T06:34:44.748Z,0.54
2023-01-27T06:35:44.736Z,0.55
2023-01-27T06:36:44.730Z,0.55
2023-01-27T06:37:44.735Z,0.56
2023-01-27T06:38:44.791Z,0.54
2023-01-27T06:39:44.749Z,0.55
2023-01-27T06:40:44.769Z,0.55
2023-01-27T06:41:44.728Z,0.55
2023-01-27T06:42:44.742Z,0.55
2023-01-27T06:43:44.735Z,0.54
2023-01-27T06:44:44.730Z,0.55
2023-01-27T06:45:44.741Z,0.57
2023-01-27T06:46:44.783Z,0.56
2023-01-27T06:47:44.735Z,0.55
2023-01-27T06:48:44.737Z,0.57
2023-01-27T06:49:44.719Z,0.59
2023-01-27T06:50:44.718Z,0.61
2023-01-27T06:51:44.713Z,0.63
2023-01-27T06:52:44.712Z,0.64
2023-01-27T06:53:44.719Z,0.67
2023-01-27T06:54:44.707Z,0.71
2023-01-27T06:55:44.712Z,0.76
2023-01-27T06:56:44.695Z,0.78
2023-01-27T06:57:44.682Z,0.82
2023-01-27T06:58:44.703Z,0.85
2023-01-27T06:59:44.666Z,0.89
2023-01-27T07:00:44.669Z,0.92
2023-01-27T07:01:44.776Z,0.92
2023-01-27T07:02:44.750Z,0.93
2023-01-27T07:03:45.215Z,0.96
2023-01-27T07:04:44.731Z,1.01
2023-01-27T07:05:44.674Z,1.10
2023-01-27T09:01:44.715Z,3.16
2023-01-27T09:04:44.767Z,4.69
2023-01-27T09:06:44.655Z,5.20
2023-01-27T09:07:44.653Z,5.58
2023-01-27T09:08:44.686Z,5.07
2023-01-27T09:09:44.652Z,5.41
2023-01-27T09:10:44.683Z,5.46
2023-01-27T09:11:44.826Z,5.57
2023-01-27T09:12:44.730Z,5.67
2023-01-27T09:13:44.652Z,5.06
2023-01-27T09:14:44.736Z,2.12
2023-01-27T09:15:51.728Z,1.98
2023-01-27T09:16:44.693Z,1.24
2023-01-27T09:17:44.697Z,0.77
2023-01-27T09:18:44.694Z,0.90
2023-01-27T09:19:44.719Z,1.67
2023-01-27T09:20:44.726Z,2.14
2023-01-27T09:21:44.755Z,2.82
2023-01-27T09:22:44.853Z,3.11
2023-01-27T09:23:44.767Z,3.69
2023-01-27T09:24:44.769Z,4.36
2023-01-27T09:25:44.804Z,4.64
2023-01-27T09:26:44.793Z,4.87
2023-01-27T09:27:44.800Z,5.17
2023-01-27T09:28:44.808Z,5.52
2023-01-27T09:29:44.805Z,5.91
2023-01-27T09:30:46.223Z,6.00
2023-01-27T09:31:44.995Z,5.98
2023-01-27T09:32:44.853Z,6.63
2023-01-27T09:33:44.852Z,6.74
2023-01-27T09:34:44.842Z,7.39
2023-01-27T09:35:44.848Z,7.59
2023-01-27T09:36:44.855Z,8.20
2023-01-27T09:37:44.845Z,8.61
2023-01-27T09:38:44.876Z,8.89
2023-01-27T09:39:44.885Z,9.21
2023-01-27T09:40:44.857Z,9.46
2023-01-27T09:41:44.851Z,9.86
2023-01-27T09:42:44.867Z,10.16
2023-01-27T09:43:44.856Z,10.59
2023-01-27T09:44:44.857Z,10.99
2023-01-27T09:45:44.863Z,11.49
2023-01-27T09:46:44.865Z,13.52
2023-01-27T09:47:44.841Z,13.55
2023-01-27T09:48:44.840Z,13.71
2023-01-27T09:49:44.843Z,13.09
2023-01-27T09:50:44.837Z,12.87
2023-01-27T09:51:44.848Z,13.38
2023-01-27T09:52:47.793Z,13.83
2023-01-27T09:53:44.841Z,13.64
2023-01-27T09:54:44.852Z,13.74
2023-01-27T09:55:44.848Z,13.48
2023-01-27T09:56:44.864Z,13.56
2023-01-27T09:57:44.860Z,13.84
2023-01-27T09:58:44.846Z,14.05
2023-01-27T09:59:44.875Z,14.16
2023-01-27T10:00:45.784Z,14.59
2023-01-27T10:01:44.894Z,14.39
2023-01-27T10:02:44.839Z,14.72
2023-01-27T10:03:44.839Z,15.15
2023-01-27T10:04:44.871Z,15.23
2023-01-27T10:05:44.824Z,15.56
2023-01-27T10:06:44.831Z,15.58
2023-01-27T10:07:44.822Z,15.32
2023-01-27T10:08:44.824Z,15.89
2023-01-27T10:09:44.834Z,16.10
2023-01-27T10:10:44.807Z,16.87
2023-01-27T10:11:44.806Z,17.26
2023-01-27T10:12:44.802Z,16.91
2023-01-27T10:13:44.878Z,16.92
2023-01-27T10:14:44.807Z,17.31
2023-01-27T10:15:44.800Z,17.44
2023-01-27T10:16:44.806Z,17.69
2023-01-27T10:17:44.791Z,18.24
2023-01-27T10:18:44.771Z,16.99
2023-01-27T10:19:44.761Z,16.20
2023-01-27T10:20:45.286Z,17.42
2023-01-27T10:21:44.751Z,18.19
2023-01-27T10:22:44.909Z,18.91
2023-01-27T10:23:44.760Z,18.79
2023-01-27T10:24:44.756Z,18.25
2023-01-27T10:25:44.718Z,17.20
2023-01-27T10:26:44.767Z,16.87
2023-01-27T10:27:44.721Z,17.67
2023-01-27T10:28:44.717Z,18.19
2023-01-27T10:29:44.735Z,19.12
2023-01-27T10:30:44.782Z,18.86
2023-01-27T10:31:44.786Z,16.75
2023-01-27T10:32:44.856Z,16.91
2023-01-27T10:33:44.735Z,17.55
2023-01-27T10:34:44.687Z,18.80
2023-01-27T10:35:44.675Z,18.81
2023-01-27T10:36:44.701Z,18.82
2023-01-27T10:37:44.669Z,16.66
2023-01-27T10:38:44.681Z,15.99
2023-01-27T10:39:44.672Z,16.04
2023-01-27T10:44:44.686Z,17.45
2023-01-27T11:04:44.692Z,3.06
2023-01-27T11:05:44.669Z,3.49
2023-01-27T11:06:44.690Z,4.33
2023-01-27T11:07:44.711Z,5.53
2023-01-27T11:08:44.708Z,4.94
2023-01-27T11:09:44.745Z,5.05
2023-01-27T11:10:44.723Z,6.22
2023-01-27T11:11:44.781Z,6.90
2023-01-27T11:12:44.715Z,5.36
2023-01-27T11:13:44.819Z,4.11
2023-01-27T11:14:44.714Z,4.64
2023-01-27T11:15:44.714Z,4.38
2023-01-27T11:16:44.777Z,4.02
2023-01-27T11:17:44.735Z,3.62
2023-01-27T11:18:44.734Z,3.15
2023-01-27T11:19:44.848Z,3.66
2023-01-27T11:20:44.774Z,3.64
2023-01-27T11:21:47.276Z,3.70
2023-01-27T11:22:45.759Z,2.92
2023-01-27T11:23:44.748Z,3.62
2023-01-27T11:24:44.790Z,3.14
2023-01-27T11:25:44.765Z,3.29
2023-01-27T11:26:44.766Z,3.94
2023-01-27T11:27:44.777Z,3.81
2023-01-27T11:28:44.775Z,4.38
2023-01-27T11:29:44.873Z,4.16
2023-01-27T11:30:44.875Z,2.91
2023-01-27T11:31:44.822Z,3.94
2023-01-27T11:32:44.791Z,4.96
2023-01-27T11:33:44.810Z,3.82
2023-01-27T11:34:44.804Z,3.44
2023-01-27T11:35:44.841Z,3.78
2023-01-27T11:36:44.811Z,4.76
2023-01-27T11:37:44.832Z,4.84
2023-01-27T11:38:44.819Z,6.68
2023-01-27T11:39:44.807Z,7.39
2023-01-27T11:40:44.824Z,7.40
2023-01-27T11:41:44.844Z,7.46
2023-01-27T11:42:44.812Z,7.52
2023-01-27T11:43:44.820Z,7.79
2023-01-27T11:44:44.811Z,8.72
2023-01-27T11:45:44.918Z,7.88
2023-01-27T11:46:44.826Z,7.85
2023-01-27T11:47:44.821Z,8.74
2023-01-27T11:48:44.823Z,9.32
2023-01-27T11:49:44.819Z,9.74
2023-01-27T11:50:44.845Z,10.02
2023-01-27T11:51:44.846Z,9.86
2023-01-27T11:52:44.872Z,10.06
2023-01-27T11:53:45.282Z,10.02
2023-01-27T11:54:44.821Z,10.10
2023-01-27T11:55:44.812Z,10.07
2023-01-27T11:56:44.859Z,10.64
2023-01-27T11:57:44.817Z,11.04
2023-01-27T11:58:44.815Z,11.16
2023-01-27T11:59:44.819Z,11.21
2023-01-27T12:00:44.805Z,11.11
2023-01-27T12:01:44.893Z,11.27
2023-01-27T12:02:45.039Z,11.31
2023-01-27T12:03:44.875Z,11.23
2023-01-27T12:04:44.864Z,11.55
2023-01-27T12:05:44.799Z,11.60
2023-01-27T12:06:44.802Z,11.57
2023-01-27T12:09:44.821Z,11.43
2023-01-27T12:10:44.813Z,11.81
2023-01-27T12:11:44.782Z,12.17
2023-01-27T12:12:44.786Z,11.99
2023-01-27T12:13:44.773Z,12.12
2023-01-27T12:14:44.779Z,11.77
2023-01-27T12:15:44.837Z,11.66
2023-01-27T12:16:44.763Z,11.82
2023-01-27T12:17:44.767Z,11.84
2023-01-27T12:18:44.756Z,11.85
2023-01-27T12:19:44.758Z,11.84
2023-01-27T12:20:44.732Z,11.73
2023-01-27T12:21:44.733Z,11.75
2023-01-27T12:22:44.732Z,11.79
2023-01-27T12:23:44.724Z,11.67
2023-01-27T12:24:44.717Z,11.79
2023-01-27T12:25:44.760Z,11.92
2023-01-27T12:26:44.726Z,11.57
2023-01-27T12:27:44.687Z,11.32
2023-01-27T12:28:44.690Z,11.75
2023-01-27T12:29:44.668Z,11.52
2023-01-27T12:30:44.784Z,11.53
2023-01-27T12:31:44.739Z,11.58
2023-01-27T12:33:44.668Z,11.88
2023-01-27T18:54:43.634Z,1.81
2023-01-27T18:55:43.656Z,1.79
2023-01-27T18:56:43.642Z,1.71
2023-01-27T18:57:43.649Z,1.69
2023-01-27T18:58:43.647Z,1.75
2023-01-27T18:59:43.656Z,1.80
2023-01-27T19:00:43.671Z,1.78
2023-01-27T19:01:43.686Z,1.69
2023-01-27T19:02:43.667Z,1.65
2023-01-27T19:03:43.656Z,1.70
2023-01-27T19:04:43.686Z,1.75
2023-01-27T19:05:43.658Z,1.74
2023-01-27T19:06:43.662Z,1.76
2023-01-27T19:07:43.658Z,1.66
2023-01-27T19:08:43.655Z,1.64
2023-01-27T19:09:43.657Z,1.72
2023-01-27T19:10:43.660Z,1.73
2023-01-27T19:11:43.655Z,1.71
2023-01-27T19:12:43.665Z,1.71
2023-01-27T19:13:43.663Z,1.63
2023-01-27T19:14:43.661Z,1.68
2023-01-27T19:15:43.666Z,1.68
2023-01-27T19:16:43.666Z,1.70
2023-01-27T19:17:43.662Z,1.72
2023-01-27T19:18:43.661Z,1.68
2023-01-27T19:19:43.710Z,1.59
2023-01-27T19:20:43.674Z,1.65
2023-01-27T19:21:43.673Z,1.65
2023-01-27T19:22:43.687Z,1.69
2023-01-27T19:23:43.683Z,1.68
2023-01-27T19:24:43.698Z,1.60
2023-01-27T19:25:43.677Z,1.61
2023-01-27T19:26:43.674Z,1.61
2023-01-27T19:27:43.683Z,1.68
2023-01-27T19:28:43.677Z,1.68
2023-01-27T19:29:43.677Z,1.69
2023-01-27T19:30:43.774Z,1.60
2023-01-27T19:31:43.725Z,1.60
2023-01-27T19:32:43.690Z,1.61
2023-01-27T19:33:43.697Z,1.64
2023-01-27T19:34:43.692Z,1.67
2023-01-27T19:35:43.693Z,1.67
2023-01-27T19:36:43.682Z,1.57
2023-01-27T19:37:43.678Z,1.64
2023-01-27T19:38:43.680Z,1.65
2023-01-27T19:39:43.679Z,1.66
2023-01-27T19:40:43.692Z,1.66
2023-01-27T19:41:43.676Z,1.59
2023-01-27T19:42:43.675Z,1.56
2023-01-27T19:43:43.677Z,1.60
2023-01-27T19:44:43.687Z,1.57
2023-01-27T19:45:43.701Z,1.64
2023-01-27T19:46:43.679Z,1.66
2023-01-27T19:47:43.684Z,1.56
2023-01-27T19:48:43.683Z,1.54
2023-01-27T19:49:43.692Z,1.61
2023-01-27T19:50:43.696Z,1.60
2023-01-27T19:51:43.686Z,1.63
2023-01-27T19:52:43.692Z,1.64
2023-01-27T19:53:43.681Z,1.56
2023-01-27T19:54:43.686Z,1.56
2023-01-27T19:55:43.695Z,1.57
2023-01-27T19:56:43.699Z,1.59
2023-01-27T19:57:43.695Z,1.59
2023-01-27T19:58:43.704Z,1.59
2023-01-27T19:59:43.697Z,1.52
2023-01-27T20:00:43.796Z,1.54
2023-01-27T20:01:43.706Z,1.55
2023-01-27T20:02:43.701Z,1.58
2023-01-27T20:03:43.697Z,1.62
2023-01-27T20:04:43.784Z,1.55
2023-01-27T20:05:43.744Z,1.49
2023-01-27T20:06:43.711Z,1.52
2023-01-27T20:07:43.711Z,1.56
2023-01-27T20:08:43.748Z,1.57
2023-01-27T20:09:43.716Z,1.61
2023-01-27T20:10:43.720Z,1.61
2023-01-27T20:11:43.721Z,1.44
2023-01-27T20:12:43.716Z,1.49
2023-01-27T20:13:43.722Z,1.54
2023-01-27T20:14:43.748Z,1.57
2023-01-27T20:15:43.770Z,1.58
2023-01-27T20:16:43.777Z,1.47
2023-01-27T20:17:43.735Z,1.48
2023-01-27T20:18:43.737Z,1.49
2023-01-27T20:19:43.743Z,1.54
2023-01-27T20:20:43.733Z,1.58
2023-01-27T20:21:43.745Z,1.54
2023-01-27T20:22:43.740Z,1.45
2023-01-27T20:23:43.745Z,1.46
2023-01-27T20:24:43.747Z,1.51
2023-01-27T20:25:43.746Z,1.55
2023-01-27T20:26:43.757Z,1.52
2023-01-27T20:27:43.808Z,1.49
2023-01-27T20:28:43.775Z,1.41
2023-01-27T20:29:43.785Z,1.48
2023-01-27T20:30:43.833Z,1.49
2023-01-27T20:31:43.953Z,1.47
2023-01-27T20:32:43.793Z,1.51
2023-01-27T20:33:43.805Z,1.42
2023-01-27T20:34:43.803Z,1.41
2023-01-27T20:35:43.816Z,1.42
2023-01-27T20:36:43.828Z,1.46
2023-01-27T20:37:43.807Z,1.47
2023-01-27T20:38:43.829Z,1.48
2023-01-27T20:39:43.812Z,1.36
2023-01-27T20:40:43.819Z,1.41
2023-01-27T20:41:43.833Z,1.44
2023-01-27T20:42:43.836Z,1.47
2023-01-27T20:43:43.840Z,1.49
2023-01-27T20:44:43.844Z,1.48
2023-01-27T20:45:43.865Z,1.40
2023-01-27T20:46:43.857Z,1.36
2023-01-27T20:47:43.859Z,1.43
2023-01-27T20:48:43.875Z,1.45
2023-01-27T20:49:43.864Z,1.46
2023-01-27T20:50:43.868Z,1.47
2023-01-27T20:51:43.884Z,1.39
2023-01-27T20:52:43.883Z,1.37
2023-01-27T20:53:43.881Z,1.42
2023-01-27T20:54:43.888Z,1.45
2023-01-27T20:55:43.892Z,1.47
2023-01-27T20:56:43.907Z,1.40
2023-01-27T20:57:43.902Z,1.34
2023-01-27T20:58:43.907Z,1.36
2023-01-27T20:59:43.915Z,1.39
2023-01-27T21:00:43.904Z,1.47
2023-01-27T21:01:43.899Z,1.45
2023-01-27T21:02:43.911Z,1.37
2023-01-27T21:03:43.908Z,1.36
2023-01-27T21:04:43.907Z,1.35
2023-01-27T21:05:43.915Z,1.42
2023-01-27T21:06:43.910Z,1.45
2023-01-27T21:07:43.922Z,1.42
2023-01-27T21:08:43.990Z,1.31
2023-01-27T21:09:43.940Z,1.33
2023-01-27T21:10:43.951Z,1.38
2023-01-27T21:11:43.962Z,1.39
2023-01-27T21:12:43.962Z,1.44
2023-01-27T21:13:43.968Z,1.41
2023-01-27T21:14:43.964Z,1.31
2023-01-27T21:15:44.505Z,1.34
2023-01-27T21:16:44.035Z,1.37
2023-01-27T21:17:44.003Z,1.40
2023-01-27T21:18:44.011Z,1.46
2023-01-27T21:19:44.007Z,1.37
2023-01-27T21:20:43.994Z,1.30
2023-01-27T21:21:44.012Z,1.34
2023-01-27T21:22:44.010Z,1.37
2023-01-27T21:23:44.009Z,1.43
2023-01-27T21:24:44.025Z,1.43
2023-01-27T21:25:44.033Z,1.38
2023-01-27T21:26:44.056Z,1.35
2023-01-27T21:27:44.146Z,1.36
2023-01-27T21:28:44.107Z,1.41
2023-01-27T21:29:44.159Z,1.41
2023-01-27T21:30:44.188Z,1.41
2023-01-27T21:31:44.211Z,1.33
2023-01-27T21:32:44.157Z,1.33
2023-01-27T21:33:44.162Z,1.33
2023-01-27T21:34:44.167Z,1.38
2023-01-27T21:35:44.124Z,1.38
2023-01-27T21:36:44.198Z,1.36
2023-01-27T21:37:44.161Z,1.32
2023-01-27T21:38:44.171Z,1.32
2023-01-27T21:39:44.142Z,1.38
2023-01-27T21:40:44.178Z,1.41
2023-01-27T21:41:44.203Z,1.41
2023-01-27T21:42:44.243Z,1.33
2023-01-27T21:43:44.154Z,1.31
2023-01-27T21:44:44.171Z,1.35
2023-01-27T21:45:44.182Z,1.36
2023-01-27T21:46:44.190Z,1.39
2023-01-27T21:47:44.242Z,1.40
2023-01-27T21:48:44.244Z,1.30
2023-01-27T21:49:44.206Z,1.30
2023-01-27T21:50:44.200Z,1.30
2023-01-27T21:51:44.214Z,1.33
2023-01-27T21:52:44.209Z,1.35
2023-01-27T21:53:44.229Z,1.41
2023-01-27T21:54:44.236Z,1.31
2023-01-27T21:55:44.250Z,1.29
2023-01-27T21:56:44.268Z,1.33
2023-01-27T21:57:44.334Z,1.35
2023-01-27T21:58:44.263Z,1.37
2023-01-27T21:59:44.344Z,1.35